• Join FlightAware (Why Join?)
  • Login
  • US Flag 
12:56AM EDT


 

Airport Tracker/Info


-or-


 

Live Flight TrackerFlight Track Log ✈ EGF3919 ✈ 21-Apr-2012 ✈ KLIT - KORD

Flight Track Log - Related Links

Times and Time Zones

All times are in EDT time to prevent confusion due to time zone crossing. See the EGF3919 flight status page for this flight to view local times or setup timezone preferences in your user account.

Time Position Orientation Groundspeed Altitude Reporting Facility
EDT Latitude Longitude Course Direction KTS MPH feet Rate Location/Type
04:02PM 34.7505 -92.2184 130° Southeast  Level FlightAware Approximate
04:02PM 34.7372 -92.1994 24° Northeast 158 182 1,100  Level Memphis Center
04:04PM 34.8172 -92.1556 19° North 227 261 4,400 2,460 Climbing Memphis Center
04:05PM 34.9075 -92.1169 13° North 247 284 8,200 2,640 Climbing Memphis Center
04:06PM 34.9722 -92.0981 10° North 247 284 10,700 2,040 Climbing Memphis Center
04:07PM 35.0497 -92.0819 353° North 247 284 12,300 1,560 Climbing Memphis Center
04:08PM 35.1289 -92.0936 356° North 267 307 13,900 1,560 Climbing Memphis Center
04:09PM 35.2164 -92.1006 14° North 292 336 15,500 1,560 Climbing Memphis Center
04:10PM 35.3044 -92.0744 16° North 308 354 17,100 1,680 Climbing Memphis Center
04:11PM 35.3944 -92.0433 14° North 321 369 18,900 2,160 Climbing Memphis Center
04:12PM 35.4825 -92.0169 16° North 321 369 21,500 2,280 Climbing Memphis Center
04:13PM 35.5661 -91.9881 14° North 315 362 23,500 1,920 Climbing Memphis Center
04:14PM 35.6519 -91.9614 13° North 315 362 25,400 1,920 Climbing Memphis Center
04:15PM 35.7378 -91.9375 16° North 315 362 27,400 1,980 Climbing Memphis Center
04:16PM 35.8153 -91.9108 13° North 304 350 29,400 1,980 Climbing Memphis Center
04:17PM 35.8928 -91.8894 15° North 293 337 31,400 1,620 Climbing Memphis Center
04:18PM 35.9597 -91.8675 14° North 282 325 32,700 1,140 Climbing Memphis Center
04:19PM 36.0372 -91.8433 14° North 275 316 33,700 960 Climbing Memphis Center
04:20PM 36.1147 -91.8189 14° North 285 328 34,700 960 Climbing Memphis Center
04:21PM 36.2025 -91.7922 16° North 300 345 35,700 900 Climbing Memphis Center
04:22PM 36.2989 -91.7578 14° North 315 362 36,600 600 Climbing Memphis Center
04:23PM 36.3719 -91.7358 13° North 315 362 37,000 180 Climbing Memphis Center
04:24PM 36.4642 -91.7092 15° North 320 368 37,000  Level Memphis Center
04:26PM 36.6625 -91.6450 14° North 376 433 37,000  Level Kansas City Center
04:27PM 36.7722 -91.6097 15° North 394 453 37,000  Level Kansas City Center
04:28PM 36.8778 -91.5747 14° North 394 453 37,000  Level Kansas City Center
04:29PM 36.9833 -91.5419 15° North 394 453 37,000  Level Kansas City Center
04:30PM 37.0889 -91.5067 15° North 389 448 37,000  Level Kansas City Center
04:31PM 37.1883 -91.4739 14° North 384 442 37,000  Level Kansas City Center
04:32PM 37.2917 -91.4411 15° North 384 442 37,000  Level Kansas City Center
04:33PM 37.3972 -91.4056 15° North 384 442 37,000  Level Kansas City Center
04:34PM 37.4964 -91.3728 14° North 374 430 37,000  Level Kansas City Center
04:35PM 37.6019 -91.3394 15° North 374 430 37,000  Level Kansas City Center
04:36PM 37.7053 -91.3036 15° North 374 430 37,000  Level Kansas City Center
04:37PM 37.8067 -91.2703 13° North 374 430 37,000  Level Kansas City Center
04:38PM 37.9081 -91.2397 17° North 374 430 37,000  Level Kansas City Center
04:39PM 38.0069 -91.2011 13° North 374 430 37,000  Level Kansas City Center
04:40PM 38.1147 -91.1700 15° North 379 436 37,000  Level Kansas City Center
04:41PM 38.2033 -91.1394 14° North 374 430 37,000  Level Kansas City Center
04:42PM 38.3089 -91.1056 15° North 379 436 37,000  Level Kansas City Center
04:43PM 38.4100 -91.0717 15° North 379 436 37,000  Level Kansas City Center
04:44PM 38.5217 -91.0322 22° Northeast 374 430 37,000  Level Kansas City Center
04:45PM 38.6139 -90.9853 22° Northeast 377 434 37,000  Level Kansas City Center
04:46PM 38.7292 -90.9264 23° Northeast 389 448 37,000  Level Kansas City Center
04:47PM 38.8256 -90.8739 23° Northeast 404 465 37,000 -300 Level Kansas City Center
04:48PM 38.9444 -90.8092 21° North 414 476 36,400 -840 Descending Kansas City Center
04:49PM 39.0511 -90.7556 22° Northeast 414 476 35,400 -1,020 Descending Kansas City Center
04:50PM 39.1456 -90.7053 23° Northeast 408 470 34,400 -1,080 Descending Kansas City Center
04:51PM 39.2581 -90.6431 North 408 470 33,300 -720 Descending Kansas City Center
04:52PM 39.3472 -90.6247 348° North 419 482 33,000 -180 Descending Kansas City Center
04:53PM 39.4544 -90.6539 348° North 371 427 33,000  Level Kansas City Center
04:54PM 39.5469 -90.6786 352° North 354 407 33,000  Level Kansas City Center
04:55PM 39.6475 -90.6975 20° North 349 402 33,000  Level Kansas City Center
04:56PM 39.7522 -90.6486 32° Northeast 366 421 33,000  Level Kansas City Center
04:58PM 39.9075 -90.5244 29° Northeast 411 473 33,000  Level Chicago Center
04:59PM 40.0106 -90.4506 30° Northeast 423 487 33,000  Level Chicago Center
05:00PM 40.1133 -90.3733 29° Northeast 429 494 33,000  Level Chicago Center
05:01PM 40.2161 -90.2989 29° Northeast 429 494 33,000  Level Chicago Center
05:02PM 40.3064 -90.2319 29° Northeast 423 487 33,000  Level Chicago Center
05:03PM 40.4089 -90.1569 29° Northeast 423 487 33,000  Level Chicago Center
05:04PM 40.5117 -90.0819 32° Northeast 423 487 33,000  Level Chicago Center
05:05PM 40.6103 -90.0008 28° Northeast 423 487 33,000 -360 Level Chicago Center
05:06PM 40.7169 -89.9253 30° Northeast 423 487 32,300 -1,380 Descending Chicago Center
05:07PM 40.8194 -89.8467 30° Northeast 423 487 30,300 -2,040 Descending Chicago Center
05:08PM 40.9219 -89.7675 29° Northeast 423 487 28,300 -2,100 Descending Chicago Center
05:09PM 41.0408 -89.6803 30° Northeast 423 487 26,100 -1,920 Descending Chicago Center
05:10PM 41.1453 -89.6008 56° Northeast 429 494 24,500 -1,980 Descending Chicago Center
05:11PM 41.2164 -89.4631 65° Northeast 449 517 22,200 -2,400 Descending Chicago Center
05:12PM 41.2686 -89.3167 62° Northeast 444 511 19,800 -2,400 Descending Chicago Center
05:13PM 41.3206 -89.1869 60° Northeast 419 482 17,400 -2,400 Descending Chicago Center
05:14PM 41.3744 -89.0622 62° Northeast 397 457 15,100 -2,220 Descending Chicago Center
05:15PM 41.4222 -88.9400 63° Northeast 378 435 13,000 -1,860 Descending Chicago Center
05:16PM 41.4675 -88.8233 61° Northeast 372 428 11,400 -1,020 Descending Chicago Center
05:17PM 41.5108 -88.7178 63° Northeast 350 403 11,000 -240 Descending Chicago Center
05:18PM 41.5497 -88.6175 64° Northeast 312 359 11,000 -60 Level Chicago Center
05:19PM 41.5867 -88.5169 66° East 296 341 10,900 -540 Descending Chicago Center
05:20PM 41.6192 -88.4194 66° East 290 334 10,000 -900 Descending Chicago Center
05:21PM 41.6456 -88.3411 66° East 285 328 9,200 -960 Descending Chicago Center
05:22PM 41.6800 -88.2378 51° Northeast 280 322 8,100 -780 Descending Chicago Center
05:23PM 41.7211 -88.1703 37° Northeast 257 296 7,700 -780 Descending Chicago Center
05:24PM 41.7686 -88.1222 42° Northeast 225 259 6,600 -1,380 Descending Chicago Center
05:25PM 41.8036 -88.0797 42° Northeast 202 232 5,000 -1,620 Descending Chicago Center